Terminal Aerodrome Forecast
Issued by NWS

Home | Current Version | Previous Version | Graphics & Text | Print | Product List | Glossary On
Versions: 1 2 3 4 5 6 7 8 9 10 11 12 13 14 15 16 17 18 19 20 21 22 23 24 25
000
FTUS43 KICT 210153 AAA
TAFSLN
TAF AMD
KSLN 210153Z 2102/2124 17008KT P6SM SCT020 BKN200
     FM210300 17007KT P6SM BKN020
     FM210800 17008KT 4SM BR OVC012
     FM211000 17008KT 2SM BR OVC008
     FM211500 17012KT 5SM BR BKN009=

USA.gov is the U.S. government's official web portal to all federal, state and local government web resources and services.